Time;durP1;ratioP1;P1;durP2;ratioP2;P2;SDS_P1;SDS_P2;PMS_P1;PMS_P2;Temp;Humidity;BMP_temperature;BMP_pressure;BME280_temperature;BME280_humidity;BME280_pressure;Samples;Min_cycle;Max_cycle;Signal;HPM_P1;HPM_P2
2021/11/06 00:01:46;;;;;;;9.70;8.70;;;;;;;;;;5000966;28;24420;-58
2021/11/06 00:04:11;;;;;;;9.82;8.82;;;;;;;;;;4998996;28;24502;-58
2021/11/06 00:06:36;;;;;;;9.63;8.63;;;;;;;;;;4998349;28;24432;-58
2021/11/06 00:09:02;;;;;;;9.45;8.45;;;;;;;;;;4996107;28;24588;-58
2021/11/06 00:11:28;;;;;;;9.10;8.20;;;;;;;;;;4994102;28;24498;-58
2021/11/06 00:13:53;;;;;;;9.70;8.80;;;;;;;;;;5000925;28;24862;-58
2021/11/06 00:16:18;;;;;;;9.80;8.90;;;;;;;;;;5002733;28;24432;-58
2021/11/06 00:18:43;;;;;;;10.87;9.03;;;;;;;;;;4998386;28;24428;-58
2021/11/06 00:21:08;;;;;;;9.80;8.80;;;;;;;;;;5000620;28;24423;-60
2021/11/06 00:23:33;;;;;;;9.40;8.40;;;;;;;;;;5002619;28;24464;-60
2021/11/06 00:25:59;;;;;;;9.70;8.70;;;;;;;;;;5010386;28;25100;-60
2021/11/06 00:28:24;;;;;;;9.37;8.50;;;;;;;;;;5000798;28;24417;-60
2021/11/06 00:30:49;;;;;;;8.93;8.03;;;;;;;;;;5001230;28;24984;-60
2021/11/06 00:33:14;;;;;;;9.38;8.38;;;;;;;;;;4998304;28;24416;-60
2021/11/06 00:35:39;;;;;;;8.80;8.00;;;;;;;;;;4998154;28;24565;-60
2021/11/06 00:38:04;;;;;;;9.37;8.50;;;;;;;;;;5000146;28;24400;-60
2021/11/06 00:40:30;;;;;;;9.50;8.60;;;;;;;;;;4999650;28;24543;-60
2021/11/06 00:42:55;;;;;;;8.90;8.00;;;;;;;;;;4997629;28;24464;-59
2021/11/06 00:45:20;;;;;;;9.07;8.00;;;;;;;;;;4994601;28;24547;-59
2021/11/06 00:47:46;;;;;;;8.50;7.57;;;;;;;;;;4996518;28;24427;-60
2021/11/06 00:50:15;;;;;;;9.13;8.00;;;;;;;;;;4999220;28;24416;-59
2021/11/06 00:52:40;;;;;;;9.75;8.75;;;;;;;;;;4997453;28;24415;-60
2021/11/06 00:55:05;;;;;;;9.40;8.30;;;;;;;;;;5002180;28;24756;-58
2021/11/06 00:57:31;;;;;;;9.60;8.10;;;;;;;;;;5000537;28;25084;-60
2021/11/06 00:59:56;;;;;;;8.80;7.88;;;;;;;;;;4996504;28;24436;-60
2021/11/06 01:02:21;;;;;;;9.07;8.07;;;;;;;;;;4996793;28;24510;-59
2021/11/06 01:04:46;;;;;;;9.80;8.20;;;;;;;;;;4998460;28;24428;-61
2021/11/06 01:07:11;;;;;;;8.02;7.22;;;;;;;;;;4998838;28;24429;-59
2021/11/06 01:09:36;;;;;;;8.38;7.30;;;;;;;;;;5000737;28;24439;-60
2021/11/06 01:12:02;;;;;;;8.60;7.80;;;;;;;;;;4997176;28;24515;-61
2021/11/06 01:14:27;;;;;;;8.20;7.40;;;;;;;;;;4996756;28;24420;-60
2021/11/06 01:16:52;;;;;;;8.13;7.33;;;;;;;;;;4996753;28;24411;-59
2021/11/06 01:19:17;;;;;;;8.03;7.23;;;;;;;;;;4997204;28;24455;-60
2021/11/06 01:21:43;;;;;;;8.68;7.60;;;;;;;;;;4998727;28;24514;-59
2021/11/06 01:24:08;;;;;;;8.80;7.80;;;;;;;;;;4999651;28;24436;-59
2021/11/06 01:26:33;;;;;;;9.00;8.00;;;;;;;;;;5001726;28;25319;-59
2021/11/06 01:29:00;;;;;;;7.40;6.70;;;;;;;;;;4997840;28;21867;-59
2021/11/06 01:31:26;;;;;;;8.63;7.30;;;;;;;;;;4991965;28;25266;-59
2021/11/06 01:33:51;;;;;;;8.10;7.30;;;;;;;;;;4996177;28;24408;-59
2021/11/06 01:36:16;;;;;;;6.72;6.13;;;;;;;;;;5001863;28;24463;-59
2021/11/06 01:38:43;;;;;;;7.30;6.50;;;;;;;;;;5000150;28;24416;-59
2021/11/06 01:41:09;;;;;;;8.07;6.78;;;;;;;;;;4999526;28;24448;-59
2021/11/06 01:43:34;;;;;;;7.10;6.30;;;;;;;;;;4996372;28;25232;-59
2021/11/06 01:46:01;;;;;;;7.00;6.23;;;;;;;;;;5000183;28;24424;-60
2021/11/06 01:48:28;;;;;;;8.90;6.70;;;;;;;;;;5000782;28;24502;-60
2021/11/06 01:50:54;;;;;;;7.30;6.60;;;;;;;;;;5004977;28;24424;-60
2021/11/06 01:53:19;;;;;;;6.60;5.90;;;;;;;;;;5003914;28;24424;-60
2021/11/06 01:55:46;;;;;;;7.70;6.80;;;;;;;;;;5003238;28;24478;-60
2021/11/06 01:58:11;;;;;;;7.20;6.50;;;;;;;;;;4997201;28;24471;-60
2021/11/06 02:00:36;;;;;;;7.50;6.70;;;;;;;;;;4999600;28;24954;-59
2021/11/06 02:03:01;;;;;;;7.30;6.40;;;;;;;;;;5003432;28;24833;-60
2021/11/06 02:05:27;;;;;;;7.27;6.57;;;;;;;;;;5004378;28;24429;-60
2021/11/06 02:07:52;;;;;;;7.73;6.40;;;;;;;;;;5001514;28;24464;-60
2021/11/06 02:10:18;;;;;;;6.90;5.73;;;;;;;;;;5001553;28;24416;-60
2021/11/06 02:12:43;;;;;;;7.45;6.15;;;;;;;;;;4998931;28;24428;-60
2021/11/06 02:15:10;;;;;;;6.93;6.23;;;;;;;;;;5000059;28;24587;-59
2021/11/06 02:17:35;;;;;;;7.68;6.97;;;;;;;;;;5004705;28;24515;-58
2021/11/06 02:20:00;;;;;;;7.20;6.40;;;;;;;;;;5001468;28;24528;-58
2021/11/06 02:22:29;;;;;;;6.93;6.23;;;;;;;;;;5001423;28;24435;-58
2021/11/06 02:24:54;;;;;;;7.88;6.30;;;;;;;;;;4999842;28;24510;-59
2021/11/06 02:27:22;;;;;;;7.13;6.20;;;;;;;;;;5001378;28;24409;-58
2021/11/06 02:29:48;;;;;;;6.15;5.55;;;;;;;;;;5001220;28;24417;-59
2021/11/06 02:32:13;;;;;;;6.30;5.70;;;;;;;;;;5001998;28;24533;-58
2021/11/06 02:34:38;;;;;;;6.50;5.90;;;;;;;;;;5004055;28;24511;-59
2021/11/06 02:37:03;;;;;;;7.38;6.05;;;;;;;;;;4996807;28;24460;-59
2021/11/06 02:39:28;;;;;;;7.20;6.50;;;;;;;;;;4999896;28;24443;-58
2021/11/06 02:41:58;;;;;;;8.53;6.90;;;;;;;;;;5000019;28;24680;-58
2021/11/06 02:44:23;;;;;;;6.50;5.90;;;;;;;;;;4997626;28;24779;-58
2021/11/06 02:46:48;;;;;;;7.10;6.40;;;;;;;;;;5001584;28;24421;-58
2021/11/06 02:49:13;;;;;;;5.70;5.20;;;;;;;;;;5004031;28;24946;-59
2021/11/06 02:51:39;;;;;;;6.60;6.00;;;;;;;;;;5002293;28;24943;-59
2021/11/06 02:54:04;;;;;;;7.07;6.37;;;;;;;;;;4998927;28;24458;-59
2021/11/06 02:56:30;;;;;;;6.28;5.60;;;;;;;;;;4998252;28;25533;-59
2021/11/06 02:58:55;;;;;;;6.40;5.80;;;;;;;;;;5002683;28;24779;-58
2021/11/06 03:01:21;;;;;;;6.63;5.93;;;;;;;;;;5003726;28;24802;-58
2021/11/06 03:03:46;;;;;;;7.03;5.72;;;;;;;;;;5000722;28;24974;-58
2021/11/06 03:06:11;;;;;;;6.67;5.97;;;;;;;;;;5003413;28;24803;-59
2021/11/06 03:08:37;;;;;;;5.80;5.13;;;;;;;;;;4998383;28;24432;-58
2021/11/06 03:11:02;;;;;;;5.90;5.30;;;;;;;;;;5000230;28;24755;-59
2021/11/06 03:13:27;;;;;;;6.07;5.43;;;;;;;;;;5000773;28;24511;-58
2021/11/06 03:15:52;;;;;;;6.30;5.70;;;;;;;;;;5000648;28;25061;-58
2021/11/06 03:18:17;;;;;;;6.80;5.80;;;;;;;;;;5004013;28;24420;-59
2021/11/06 03:20:42;;;;;;;6.30;5.70;;;;;;;;;;4999506;28;24430;-60
2021/11/06 03:23:08;;;;;;;6.33;5.73;;;;;;;;;;4997208;28;24472;-59
2021/11/06 03:25:33;;;;;;;6.30;5.70;;;;;;;;;;4997089;28;24429;-59
2021/11/06 03:27:58;;;;;;;6.47;5.80;;;;;;;;;;5003616;28;24471;-59
2021/11/06 03:30:23;;;;;;;6.50;5.80;;;;;;;;;;5002705;28;24417;-58
2021/11/06 03:32:49;;;;;;;6.10;5.50;;;;;;;;;;4998549;28;26601;-59
2021/11/06 03:35:15;;;;;;;6.57;5.87;;;;;;;;;;4996940;28;24977;-59
2021/11/06 03:37:40;;;;;;;6.47;5.88;;;;;;;;;;4995903;28;24735;-59
2021/11/06 03:40:06;;;;;;;7.18;6.28;;;;;;;;;;5003096;28;24962;-59
2021/11/06 03:42:31;;;;;;;7.07;6.30;;;;;;;;;;5000211;28;24420;-58
2021/11/06 03:44:56;;;;;;;7.03;6.10;;;;;;;;;;4996328;28;24424;-59
2021/11/06 03:47:21;;;;;;;7.55;6.70;;;;;;;;;;4998872;28;24505;-58
2021/11/06 03:49:47;;;;;;;6.67;5.97;;;;;;;;;;4998855;28;24773;-59
2021/11/06 03:52:13;;;;;;;7.53;5.80;;;;;;;;;;4997232;28;24436;-59
2021/11/06 03:54:38;;;;;;;7.55;6.65;;;;;;;;;;5001142;28;24416;-58
2021/11/06 03:57:04;;;;;;;6.80;6.10;;;;;;;;;;5001911;28;24412;-58
2021/11/06 03:59:29;;;;;;;6.43;5.83;;;;;;;;;;5002658;28;24570;-58
2021/11/06 04:01:54;;;;;;;6.60;6.00;;;;;;;;;;5000307;28;24779;-58
2021/11/06 04:04:19;;;;;;;7.13;6.00;;;;;;;;;;4996828;28;24458;-59
2021/11/06 04:06:44;;;;;;;6.43;5.82;;;;;;;;;;4995897;28;25032;-58
2021/11/06 04:09:10;;;;;;;7.80;6.80;;;;;;;;;;5001045;28;25029;-58
2021/11/06 04:11:35;;;;;;;6.90;6.20;;;;;;;;;;5002413;28;24408;-58
2021/11/06 04:14:00;;;;;;;7.60;6.80;;;;;;;;;;4998605;28;24428;-58
2021/11/06 04:16:26;;;;;;;7.50;6.80;;;;;;;;;;4999403;28;24421;-58
2021/11/06 04:18:51;;;;;;;8.30;7.50;;;;;;;;;;4996361;28;24771;-58
2021/11/06 04:21:16;;;;;;;8.00;7.20;;;;;;;;;;4999069;28;24934;-59
2021/11/06 04:23:41;;;;;;;8.00;7.30;;;;;;;;;;4989258;28;24460;-58
2021/11/06 04:26:07;;;;;;;7.60;6.80;;;;;;;;;;4997836;28;24428;-58
2021/11/06 04:28:32;;;;;;;6.97;6.27;;;;;;;;;;4999337;28;24498;-58
2021/11/06 04:30:57;;;;;;;8.07;6.90;;;;;;;;;;4995653;28;25207;-59
2021/11/06 04:33:22;;;;;;;7.50;6.80;;;;;;;;;;4995456;28;24428;-58
2021/11/06 04:35:48;;;;;;;8.20;6.95;;;;;;;;;;4998385;28;24423;-58
2021/11/06 04:38:13;;;;;;;7.50;6.80;;;;;;;;;;4998731;28;24910;-58
2021/11/06 04:40:38;;;;;;;6.95;6.25;;;;;;;;;;5001416;28;25080;-58
2021/11/06 04:43:04;;;;;;;8.20;7.03;;;;;;;;;;4994891;28;24435;-59
2021/11/06 04:45:29;;;;;;;9.30;8.30;;;;;;;;;;4996484;28;24443;-58
2021/11/06 04:47:54;;;;;;;7.70;6.90;;;;;;;;;;4995693;28;24822;-60
2021/11/06 04:50:19;;;;;;;8.27;7.47;;;;;;;;;;4997860;28;24416;-60
2021/11/06 04:52:44;;;;;;;8.10;7.30;;;;;;;;;;5000265;28;25153;-60
2021/11/06 04:55:11;;;;;;;7.57;6.77;;;;;;;;;;5001333;28;24950;-59
2021/11/06 04:57:36;;;;;;;7.80;7.00;;;;;;;;;;5002461;28;24511;-60
2021/11/06 05:00:03;;;;;;;7.97;6.80;;;;;;;;;;4995458;28;24858;-60
2021/11/06 05:02:28;;;;;;;7.53;6.83;;;;;;;;;;4997362;28;24424;-60
2021/11/06 05:04:54;;;;;;;7.67;6.90;;;;;;;;;;4998186;28;24439;-60
2021/11/06 05:07:19;;;;;;;7.60;6.90;;;;;;;;;;5001811;28;24498;-60
2021/11/06 05:09:44;;;;;;;8.17;7.30;;;;;;;;;;4999311;28;24499;-60
2021/11/06 05:12:09;;;;;;;7.25;6.55;;;;;;;;;;5005817;28;24413;-60
2021/11/06 05:14:35;;;;;;;8.38;7.20;;;;;;;;;;4994764;28;24436;-60
2021/11/06 05:17:01;;;;;;;8.03;6.50;;;;;;;;;;4988650;28;24436;-60
2021/11/06 05:19:26;;;;;;;7.43;6.63;;;;;;;;;;4998733;28;24420;-60
2021/11/06 05:21:51;;;;;;;7.70;6.90;;;;;;;;;;4995178;28;24429;-60
2021/11/06 05:24:16;;;;;;;7.40;6.70;;;;;;;;;;5002549;28;24436;-60
2021/11/06 05:26:42;;;;;;;7.93;7.13;;;;;;;;;;4996989;28;24440;-60
2021/11/06 05:29:09;;;;;;;7.70;6.90;;;;;;;;;;5003348;28;24444;-59
2021/11/06 05:31:35;;;;;;;7.90;7.10;;;;;;;;;;5003780;28;24417;-59
2021/11/06 05:34:01;;;;;;;7.90;7.13;;;;;;;;;;5003095;28;24415;-60
2021/11/06 05:36:27;;;;;;;7.57;6.88;;;;;;;;;;5002754;28;24420;-60
2021/11/06 05:38:52;;;;;;;8.05;7.22;;;;;;;;;;4999743;28;24420;-60
2021/11/06 05:41:17;;;;;;;8.20;7.40;;;;;;;;;;4999541;28;25597;-60
2021/11/06 05:43:43;;;;;;;9.18;8.27;;;;;;;;;;4992880;28;24512;-59
2021/11/06 05:46:08;;;;;;;8.87;7.97;;;;;;;;;;5003853;28;24432;-60
2021/11/06 05:48:33;;;;;;;9.00;8.10;;;;;;;;;;5005599;28;24424;-60
2021/11/06 05:50:59;;;;;;;9.20;8.20;;;;;;;;;;5002441;28;24417;-59
2021/11/06 05:53:24;;;;;;;9.60;8.60;;;;;;;;;;4997621;28;25026;-60
2021/11/06 05:55:49;;;;;;;8.65;7.75;;;;;;;;;;5000877;28;24448;-61
2021/11/06 05:58:14;;;;;;;9.17;8.27;;;;;;;;;;5001157;28;24578;-60
2021/11/06 06:00:40;;;;;;;9.57;8.65;;;;;;;;;;5001155;28;25156;-60
2021/11/06 06:03:05;;;;;;;10.88;9.38;;;;;;;;;;5003189;28;25194;-60
2021/11/06 06:05:30;;;;;;;9.33;8.40;;;;;;;;;;5005304;28;24474;-60
2021/11/06 06:07:55;;;;;;;11.55;9.50;;;;;;;;;;5001927;28;24424;-59
2021/11/06 06:10:21;;;;;;;10.30;8.97;;;;;;;;;;5003533;28;24460;-60
2021/11/06 06:12:50;;;;;;;9.43;8.40;;;;;;;;;;4997156;28;24486;-59
2021/11/06 06:15:16;;;;;;;10.68;9.20;;;;;;;;;;4997574;28;24428;-59
2021/11/06 06:17:41;;;;;;;10.70;9.60;;;;;;;;;;4998334;28;24567;-59
2021/11/06 06:20:10;;;;;;;10.13;9.13;;;;;;;;;;5002577;28;24435;-59
2021/11/06 06:22:35;;;;;;;10.70;9.18;;;;;;;;;;5000452;28;24522;-58
2021/11/06 06:25:01;;;;;;;9.77;8.73;;;;;;;;;;5000520;28;24475;-59
2021/11/06 06:27:26;;;;;;;9.90;8.90;;;;;;;;;;4989699;28;24895;-60
2021/11/06 06:29:51;;;;;;;10.38;9.00;;;;;;;;;;4998212;28;24460;-60
2021/11/06 06:32:16;;;;;;;10.90;9.80;;;;;;;;;;4995768;28;24409;-61
2021/11/06 06:34:41;;;;;;;9.57;8.67;;;;;;;;;;4999160;28;25152;-61
2021/11/06 06:37:07;;;;;;;10.10;9.00;;;;;;;;;;5005152;28;24410;-60
2021/11/06 06:39:32;;;;;;;9.60;8.70;;;;;;;;;;5004740;28;24395;-60
2021/11/06 06:41:57;;;;;;;9.00;8.20;;;;;;;;;;4998996;28;24959;-60
2021/11/06 06:44:22;;;;;;;10.30;9.30;;;;;;;;;;4996155;28;25020;-60
2021/11/06 06:46:48;;;;;;;10.80;9.70;;;;;;;;;;4996346;28;24440;-60
2021/11/06 06:49:13;;;;;;;10.10;9.10;;;;;;;;;;5000673;28;24451;-59
2021/11/06 06:51:38;;;;;;;9.47;8.57;;;;;;;;;;5003048;28;24409;-61
2021/11/06 06:54:04;;;;;;;9.70;8.70;;;;;;;;;;4995886;28;24451;-60
2021/11/06 06:56:29;;;;;;;10.93;9.90;;;;;;;;;;4997448;28;24413;-60
2021/11/06 06:58:54;;;;;;;10.77;9.67;;;;;;;;;;4990989;28;24532;-60
2021/11/06 07:01:19;;;;;;;10.30;9.30;;;;;;;;;;5000468;28;24413;-59
2021/11/06 07:03:46;;;;;;;10.30;8.87;;;;;;;;;;4997800;28;24423;-59
2021/11/06 07:06:11;;;;;;;9.70;8.80;;;;;;;;;;4998170;28;24954;-60
2021/11/06 07:08:36;;;;;;;9.73;8.77;;;;;;;;;;5002244;28;24471;-60
2021/11/06 07:11:01;;;;;;;9.60;8.40;;;;;;;;;;4995995;28;24413;-60
2021/11/06 07:13:27;;;;;;;9.10;8.18;;;;;;;;;;5002076;28;24504;-59
2021/11/06 07:15:52;;;;;;;10.02;9.02;;;;;;;;;;4990570;28;24965;-60
2021/11/06 07:18:17;;;;;;;9.60;8.60;;;;;;;;;;4997095;28;24783;-60
2021/11/06 07:20:43;;;;;;;9.33;8.40;;;;;;;;;;5001753;28;24486;-60
2021/11/06 07:23:08;;;;;;;10.27;9.27;;;;;;;;;;4995994;28;24540;-60
2021/11/06 07:25:33;;;;;;;9.50;8.60;;;;;;;;;;4987519;28;24432;-60
2021/11/06 07:27:59;;;;;;;11.07;10.00;;;;;;;;;;4997995;28;25037;-59
2021/11/06 07:30:24;;;;;;;11.13;9.93;;;;;;;;;;4990435;28;24875;-58
2021/11/06 07:32:50;;;;;;;11.63;10.43;;;;;;;;;;5002303;28;24471;-58
2021/11/06 07:35:15;;;;;;;10.20;9.20;;;;;;;;;;4997385;28;24430;-59
2021/11/06 07:37:40;;;;;;;9.32;8.40;;;;;;;;;;4996646;28;24408;-60
2021/11/06 07:40:08;;;;;;;9.93;9.00;;;;;;;;;;5000612;28;24966;-61
2021/11/06 07:42:33;;;;;;;9.63;8.63;;;;;;;;;;4998202;28;24429;-58
2021/11/06 07:44:58;;;;;;;9.67;8.33;;;;;;;;;;4995854;28;24471;-59
2021/11/06 07:47:24;;;;;;;9.37;8.47;;;;;;;;;;4992779;28;24518;-59
2021/11/06 07:49:49;;;;;;;10.77;8.13;;;;;;;;;;5000528;28;24516;-59
2021/11/06 07:52:15;;;;;;;10.52;9.48;;;;;;;;;;5001500;28;24449;-60
2021/11/06 07:54:40;;;;;;;9.67;8.77;;;;;;;;;;5001562;28;24447;-60
2021/11/06 07:57:05;;;;;;;8.53;7.70;;;;;;;;;;5001731;28;24500;-60
2021/11/06 07:59:31;;;;;;;9.33;8.33;;;;;;;;;;4991973;28;25040;-59
2021/11/06 08:01:56;;;;;;;9.27;8.37;;;;;;;;;;5001660;28;25075;-60
2021/11/06 08:04:21;;;;;;;9.55;8.65;;;;;;;;;;5003294;28;24494;-60
2021/11/06 08:06:46;;;;;;;9.25;8.35;;;;;;;;;;4999261;28;24857;-60
2021/11/06 08:09:13;;;;;;;8.98;8.10;;;;;;;;;;4996421;28;24420;-60
2021/11/06 08:11:38;;;;;;;9.15;8.25;;;;;;;;;;4994304;28;24417;-60
2021/11/06 08:14:03;;;;;;;8.48;7.68;;;;;;;;;;5000108;28;25267;-59
2021/11/06 08:16:28;;;;;;;9.57;8.60;;;;;;;;;;4984333;28;24417;-59
2021/11/06 08:18:54;;;;;;;10.23;9.13;;;;;;;;;;4989844;28;24416;-59
2021/11/06 08:21:19;;;;;;;8.57;7.73;;;;;;;;;;4985215;28;25077;-59
2021/11/06 08:23:44;;;;;;;8.70;7.80;;;;;;;;;;4997985;28;24505;-59
2021/11/06 08:26:10;;;;;;;7.90;7.20;;;;;;;;;;5001194;28;24624;-59
2021/11/06 08:28:35;;;;;;;8.67;7.87;;;;;;;;;;4997666;28;24946;-59
2021/11/06 08:31:00;;;;;;;10.48;7.95;;;;;;;;;;4992465;28;24432;-59
2021/11/06 08:33:26;;;;;;;7.30;6.60;;;;;;;;;;5000646;28;24422;-59
2021/11/06 08:35:51;;;;;;;7.43;6.72;;;;;;;;;;5001628;28;24872;-60
2021/11/06 08:38:16;;;;;;;8.17;6.87;;;;;;;;;;5002042;28;24775;-60
2021/11/06 08:40:42;;;;;;;6.60;6.00;;;;;;;;;;4995996;28;24567;-60
2021/11/06 08:43:07;;;;;;;8.87;6.60;;;;;;;;;;4999889;28;24409;-60
2021/11/06 08:45:32;;;;;;;7.00;6.40;;;;;;;;;;5001843;28;25010;-60
2021/11/06 08:47:57;;;;;;;8.10;6.60;;;;;;;;;;5000371;28;24507;-60
2021/11/06 08:50:24;;;;;;;8.97;6.13;;;;;;;;;;5002361;28;24741;-60
2021/11/06 08:52:50;;;;;;;7.27;6.57;;;;;;;;;;4999158;28;24416;-60
2021/11/06 08:55:16;;;;;;;6.22;5.53;;;;;;;;;;4996751;28;24419;-56
2021/11/06 08:57:41;;;;;;;6.80;6.20;;;;;;;;;;4998441;28;24428;-58
2021/11/06 09:00:08;;;;;;;6.70;6.10;;;;;;;;;;5002242;28;24984;-60
2021/11/06 09:02:34;;;;;;;6.90;6.30;;;;;;;;;;5001685;28;24463;-59
2021/11/06 09:04:59;;;;;;;5.82;5.20;;;;;;;;;;4996509;28;25438;-60
2021/11/06 09:07:25;;;;;;;6.30;5.70;;;;;;;;;;4996595;28;25000;-61
2021/11/06 09:09:50;;;;;;;6.10;5.50;;;;;;;;;;4999822;28;24407;-61
2021/11/06 09:12:15;;;;;;;6.57;5.90;;;;;;;;;;5002473;28;24504;-61
2021/11/06 09:14:40;;;;;;;5.97;5.35;;;;;;;;;;4999060;28;24855;-58
2021/11/06 09:17:05;;;;;;;5.40;4.90;;;;;;;;;;4997626;28;24415;-60
2021/11/06 09:19:31;;;;;;;5.97;5.33;;;;;;;;;;4995736;28;24471;-59
2021/11/06 09:21:56;;;;;;;5.20;4.70;;;;;;;;;;5001568;28;24432;-59
2021/11/06 09:24:21;;;;;;;5.43;4.88;;;;;;;;;;5001649;28;24436;-59
2021/11/06 09:26:46;;;;;;;5.70;5.20;;;;;;;;;;5001368;28;24420;-58
2021/11/06 09:29:12;;;;;;;5.30;4.80;;;;;;;;;;5000338;28;24966;-59
2021/11/06 09:31:38;;;;;;;6.40;5.40;;;;;;;;;;4998257;28;24443;-59
2021/11/06 09:34:05;;;;;;;5.55;5.05;;;;;;;;;;4997374;28;24986;-59
2021/11/06 09:36:30;;;;;;;6.22;5.72;;;;;;;;;;5000206;28;24798;-59
2021/11/06 09:38:57;;;;;;;5.87;5.37;;;;;;;;;;5001144;28;24486;-59
2021/11/06 09:41:22;;;;;;;5.60;5.10;;;;;;;;;;5001472;28;24471;-59
2021/11/06 09:43:47;;;;;;;4.97;4.57;;;;;;;;;;4999425;28;24467;-59
2021/11/06 09:46:13;;;;;;;6.57;5.90;;;;;;;;;;4996009;28;24986;-59
2021/11/06 09:48:42;;;;;;;5.70;5.20;;;;;;;;;;5001032;28;24494;-59
2021/11/06 09:51:08;;;;;;;5.40;4.90;;;;;;;;;;5000227;28;24388;-60
2021/11/06 09:53:40;;;;;;;5.77;5.27;;;;;;;;;;4997222;28;24474;-60
2021/11/06 09:56:05;;;;;;;6.00;5.50;;;;;;;;;;4996002;28;24507;-59
2021/11/06 09:58:31;;;;;;;4.85;4.45;;;;;;;;;;4999800;28;25294;-60
2021/11/06 10:00:56;;;;;;;5.40;4.90;;;;;;;;;;4999454;28;24567;-59
2021/11/06 10:03:21;;;;;;;5.50;5.00;;;;;;;;;;5001625;28;24954;-59
2021/11/06 10:05:51;;;;;;;5.80;5.30;;;;;;;;;;5000755;28;24962;-60
2021/11/06 10:08:19;;;;;;;5.60;5.10;;;;;;;;;;4999351;28;24435;-60
2021/11/06 10:10:44;;;;;;;4.80;4.40;;;;;;;;;;5000937;28;24456;-60
2021/11/06 10:13:10;;;;;;;4.93;4.43;;;;;;;;;;5002363;28;24967;-59
2021/11/06 10:15:40;;;;;;;4.90;4.50;;;;;;;;;;5004878;28;25076;-60
2021/11/06 10:18:18;;;;;;;5.93;4.85;;;;;;;;;;5005160;28;24407;-60
2021/11/06 10:20:45;;;;;;;5.22;4.80;;;;;;;;;;5016625;28;24407;-60
2021/11/06 10:23:10;;;;;;;4.17;3.77;;;;;;;;;;5016077;28;24597;-60
2021/11/06 10:25:37;;;;;;;5.70;5.10;;;;;;;;;;5001455;28;25041;-60
2021/11/06 10:28:04;;;;;;;4.75;4.25;;;;;;;;;;5001411;28;24384;-60
2021/11/06 10:30:32;;;;;;;4.43;4.03;;;;;;;;;;5005356;28;25012;-60
2021/11/06 10:32:59;;;;;;;4.35;3.90;;;;;;;;;;5003117;28;24392;-60
2021/11/06 10:35:26;;;;;;;5.03;4.53;;;;;;;;;;4995317;28;24451;-60
2021/11/06 10:37:56;;;;;;;4.20;3.80;;;;;;;;;;4979814;28;24492;-60
2021/11/06 10:40:21;;;;;;;4.60;4.20;;;;;;;;;;4980006;28;24403;-60
2021/11/06 10:42:48;;;;;;;3.60;3.30;;;;;;;;;;4985272;28;24604;-60
2021/11/06 10:45:14;;;;;;;5.30;3.93;;;;;;;;;;4997458;28;24544;-59
2021/11/06 10:48:03;;;;;;;3.80;3.50;;;;;;;;;;5003068;28;24408;-60
2021/11/06 10:50:47;;;;;;;3.90;3.60;;;;;;;;;;5001280;28;24819;-60
2021/11/06 10:53:14;;;;;;;4.17;3.87;;;;;;;;;;4998970;28;25089;-60
2021/11/06 10:55:41;;;;;;;3.90;3.50;;;;;;;;;;5002859;28;24551;-60
2021/11/06 10:58:25;;;;;;;3.97;3.67;;;;;;;;;;5004488;28;24499;-60
2021/11/06 11:00:52;;;;;;;3.45;3.15;;;;;;;;;;5002871;28;24396;-62
2021/11/06 11:03:21;;;;;;;4.30;3.95;;;;;;;;;;5004212;28;24424;-61
2021/11/06 11:05:46;;;;;;;4.65;4.25;;;;;;;;;;4998544;28;24475;-59
2021/11/06 11:08:15;;;;;;;3.73;3.43;;;;;;;;;;4998882;28;24397;-59
2021/11/06 11:10:41;;;;;;;4.20;3.80;;;;;;;;;;5001036;28;24843;-59
2021/11/06 11:13:07;;;;;;;4.35;3.95;;;;;;;;;;5002785;28;24435;-59
2021/11/06 11:15:33;;;;;;;5.07;4.20;;;;;;;;;;5003794;28;24497;-60
2021/11/06 11:17:59;;;;;;;4.03;3.70;;;;;;;;;;5001585;28;24950;-60
2021/11/06 11:20:29;;;;;;;4.00;3.60;;;;;;;;;;4998802;28;24403;-59
2021/11/06 11:23:09;;;;;;;3.90;3.50;;;;;;;;;;4998764;28;24564;-60
2021/11/06 11:25:36;;;;;;;4.67;3.70;;;;;;;;;;5001932;28;24986;-60
2021/11/06 11:28:01;;;;;;;3.30;3.00;;;;;;;;;;5004058;28;24400;-59
2021/11/06 11:30:26;;;;;;;4.60;4.10;;;;;;;;;;5004088;28;24763;-60
2021/11/06 11:32:52;;;;;;;5.90;5.07;;;;;;;;;;5000420;28;24511;-59
2021/11/06 11:35:17;;;;;;;6.13;5.13;;;;;;;;;;4999271;28;24412;-59
2021/11/06 11:37:42;;;;;;;6.10;4.83;;;;;;;;;;4991422;28;24950;-59
2021/11/06 11:40:08;;;;;;;4.80;4.30;;;;;;;;;;4995813;28;24415;-60
2021/11/06 11:42:38;;;;;;;5.38;4.88;;;;;;;;;;4988928;28;24408;-60
2021/11/06 11:45:16;;;;;;;4.60;4.20;;;;;;;;;;4996530;28;24990;-60
2021/11/06 11:47:48;;;;;;;4.60;4.20;;;;;;;;;;4999696;28;24428;-61
2021/11/06 11:50:16;;;;;;;4.70;4.30;;;;;;;;;;4990666;28;24432;-60
2021/11/06 11:52:42;;;;;;;6.00;5.40;;;;;;;;;;4992602;28;24540;-60
2021/11/06 11:55:12;;;;;;;4.43;4.03;;;;;;;;;;4998490;28;24427;-60
2021/11/06 11:57:38;;;;;;;4.37;3.97;;;;;;;;;;5001442;28;24409;-60
2021/11/06 12:00:19;;;;;;;4.90;4.40;;;;;;;;;;5000824;28;24416;-60
2021/11/06 12:02:56;;;;;;;5.10;4.20;;;;;;;;;;4996582;28;24419;-60
2021/11/06 12:05:21;;;;;;;4.35;3.95;;;;;;;;;;4995315;28;24539;-59
2021/11/06 12:07:47;;;;;;;5.00;4.50;;;;;;;;;;4996885;28;24543;-60
2021/11/06 12:10:25;;;;;;;4.67;4.27;;;;;;;;;;5002519;28;24412;-60
2021/11/06 12:12:50;;;;;;;4.90;4.40;;;;;;;;;;4991761;28;24907;-60
2021/11/06 12:15:15;;;;;;;4.60;4.20;;;;;;;;;;4997203;28;24625;-59
2021/11/06 12:17:41;;;;;;;4.60;4.20;;;;;;;;;;5002261;28;24842;-61
2021/11/06 12:20:23;;;;;;;4.93;4.43;;;;;;;;;;4995245;28;24424;-61
2021/11/06 12:22:49;;;;;;;5.93;5.40;;;;;;;;;;5000006;28;24428;-61
2021/11/06 12:25:18;;;;;;;5.83;5.23;;;;;;;;;;5009288;28;24423;-60
2021/11/06 12:27:51;;;;;;;5.30;4.80;;;;;;;;;;4992525;28;24436;-60
2021/11/06 12:30:22;;;;;;;4.60;4.20;;;;;;;;;;4985195;28;24436;-60
2021/11/06 12:32:48;;;;;;;4.80;4.40;;;;;;;;;;4996109;28;24416;-60
2021/11/06 12:35:13;;;;;;;5.37;4.50;;;;;;;;;;4999008;28;24423;-60
2021/11/06 12:37:38;;;;;;;4.68;4.28;;;;;;;;;;4997890;28;24452;-64
2021/11/06 12:40:04;;;;;;;5.10;4.60;;;;;;;;;;4993673;28;24516;-62
2021/11/06 12:42:30;;;;;;;5.05;4.55;;;;;;;;;;4999781;28;24494;-62
2021/11/06 12:45:01;;;;;;;5.50;5.00;;;;;;;;;;4996121;28;25660;-62
2021/11/06 12:47:27;;;;;;;4.80;4.40;;;;;;;;;;4998769;28;24527;-62
2021/11/06 12:49:52;;;;;;;5.72;5.10;;;;;;;;;;4997631;28;25070;-62
2021/11/06 12:52:18;;;;;;;5.68;4.80;;;;;;;;;;4994058;28;24464;-62
2021/11/06 12:54:44;;;;;;;5.20;4.70;;;;;;;;;;4992732;28;24428;-63
2021/11/06 12:57:09;;;;;;;6.00;5.50;;;;;;;;;;4995956;28;24973;-62
2021/11/06 12:59:43;;;;;;;4.87;4.37;;;;;;;;;;4995898;28;24434;-62
2021/11/06 13:02:08;;;;;;;5.25;4.85;;;;;;;;;;5001924;28;24416;-62
2021/11/06 13:04:35;;;;;;;5.80;5.25;;;;;;;;;;5001339;28;24419;-62
2021/11/06 13:07:02;;;;;;;5.47;4.97;;;;;;;;;;5000098;28;24424;-62
2021/11/06 13:09:28;;;;;;;5.35;4.85;;;;;;;;;;4998240;28;24416;-62
2021/11/06 13:11:53;;;;;;;5.90;5.40;;;;;;;;;;4998649;28;24538;-62
2021/11/06 13:14:38;;;;;;;6.17;5.57;;;;;;;;;;4999244;28;24958;-62
2021/11/06 13:17:09;;;;;;;4.95;4.45;;;;;;;;;;4999349;28;24925;-62
2021/11/06 13:19:44;;;;;;;4.93;4.53;;;;;;;;;;5002255;28;24412;-62
2021/11/06 13:22:11;;;;;;;4.88;4.47;;;;;;;;;;4998163;28;24424;-61
2021/11/06 13:24:49;;;;;;;6.13;5.28;;;;;;;;;;4998448;28;24514;-62
2021/11/06 13:27:33;;;;;;;5.20;4.70;;;;;;;;;;4998239;28;24424;-62
2021/11/06 13:30:17;;;;;;;4.60;4.20;;;;;;;;;;5000560;28;24428;-61
2021/11/06 13:32:49;;;;;;;4.50;4.10;;;;;;;;;;4998194;28;24420;-60
2021/11/06 13:35:18;;;;;;;4.80;4.38;;;;;;;;;;5001418;28;24560;-60
2021/11/06 13:37:43;;;;;;;4.60;4.20;;;;;;;;;;4985727;28;24716;-60
2021/11/06 13:40:08;;;;;;;6.00;5.50;;;;;;;;;;5000252;28;25226;-60
2021/11/06 13:42:33;;;;;;;5.82;4.88;;;;;;;;;;5002617;28;24560;-61
2021/11/06 13:45:07;;;;;;;5.67;4.90;;;;;;;;;;5005766;28;24958;-61
2021/11/06 13:47:41;;;;;;;5.33;4.90;;;;;;;;;;5005396;28;25064;-61
2021/11/06 13:50:07;;;;;;;5.20;4.70;;;;;;;;;;5003350;28;24582;-60
2021/11/06 13:52:32;;;;;;;4.72;4.20;;;;;;;;;;5001024;28;25185;-62
2021/11/06 13:54:57;;;;;;;4.60;4.20;;;;;;;;;;5003507;28;24420;-61
2021/11/06 13:57:25;;;;;;;6.37;5.77;;;;;;;;;;5005034;28;24417;-62
2021/11/06 13:59:50;;;;;;;7.43;6.72;;;;;;;;;;5003051;28;24416;-62
2021/11/06 14:02:17;;;;;;;8.43;7.63;;;;;;;;;;5004313;28;24985;-62
2021/11/06 14:04:44;;;;;;;6.43;5.82;;;;;;;;;;5001410;28;24534;-61
2021/11/06 14:07:14;;;;;;;5.32;4.82;;;;;;;;;;5001517;28;24439;-62
2021/11/06 14:09:47;;;;;;;4.90;4.40;;;;;;;;;;4976074;28;24775;-62
2021/11/06 14:12:12;;;;;;;5.18;4.68;;;;;;;;;;5004735;28;24428;-61
2021/11/06 14:14:54;;;;;;;6.10;4.63;;;;;;;;;;5005101;28;24409;-63
2021/11/06 14:17:20;;;;;;;4.63;4.22;;;;;;;;;;5002679;28;24582;-62
2021/11/06 14:19:50;;;;;;;4.57;4.18;;;;;;;;;;4998047;28;24413;-62
2021/11/06 14:22:22;;;;;;;4.80;4.40;;;;;;;;;;4989518;28;24423;-62
2021/11/06 14:24:47;;;;;;;5.03;4.30;;;;;;;;;;5002702;28;24994;-63
2021/11/06 14:27:12;;;;;;;5.20;4.63;;;;;;;;;;5004788;28;24425;-62
2021/11/06 14:29:38;;;;;;;4.95;4.45;;;;;;;;;;4999398;28;24412;-62
2021/11/06 14:32:07;;;;;;;4.60;4.20;;;;;;;;;;4981662;28;24823;-61
2021/11/06 14:34:33;;;;;;;5.30;4.80;;;;;;;;;;4993341;28;24551;-62
2021/11/06 14:37:03;;;;;;;4.50;4.10;;;;;;;;;;5003247;28;24405;-62
2021/11/06 14:39:32;;;;;;;4.50;3.90;;;;;;;;;;5004422;28;24878;-61